createdAt,value
2022-09-10T00:01:16.328Z,15.20
2022-09-10T00:03:46.070Z,15.10
2022-09-10T00:06:12.805Z,15.10
2022-09-10T00:08:39.802Z,15.10
2022-09-10T00:11:07.626Z,15.10
2022-09-10T00:13:34.633Z,15.00
2022-09-10T00:16:03.001Z,15.10
2022-09-10T00:18:29.928Z,15.00
2022-09-10T00:20:57.209Z,15.00
2022-09-10T00:23:25.984Z,15.00
2022-09-10T00:25:53.546Z,15.00
2022-09-10T00:28:24.297Z,15.00
2022-09-10T00:30:51.747Z,15.00
2022-09-10T00:33:18.970Z,15.00
2022-09-10T00:35:45.828Z,14.90
2022-09-10T00:38:13.100Z,14.90
2022-09-10T00:40:40.285Z,14.90
2022-09-10T00:43:15.166Z,14.90
2022-09-10T00:45:42.030Z,14.90
2022-09-10T00:48:30.784Z,14.90
2022-09-10T00:50:57.986Z,14.80
2022-09-10T00:53:26.989Z,14.80
2022-09-10T00:55:55.684Z,14.80
2022-09-10T00:58:22.553Z,14.70
2022-09-10T01:00:49.300Z,14.80
2022-09-10T01:03:16.128Z,14.70
2022-09-10T01:05:46.393Z,14.70
2022-09-10T01:08:16.927Z,14.70
2022-09-10T01:11:10.153Z,14.70
2022-09-10T01:14:09.935Z,14.70
2022-09-10T01:16:52.906Z,14.70
2022-09-10T01:19:38.209Z,14.60
2022-09-10T01:22:08.058Z,14.60
2022-09-10T01:25:01.295Z,14.60
2022-09-10T01:27:38.169Z,14.50
2022-09-10T01:30:09.210Z,14.60
2022-09-10T01:32:39.855Z,14.60
2022-09-10T01:35:22.537Z,14.60
2022-09-10T01:37:54.508Z,14.70
2022-09-10T01:40:28.816Z,14.70
2022-09-10T01:43:01.202Z,14.70
2022-09-10T01:45:28.746Z,14.70
2022-09-10T01:48:06.226Z,14.70
2022-09-10T01:50:39.362Z,14.70
2022-09-10T01:54:03.668Z,14.70
2022-09-10T01:56:42.171Z,14.70
2022-09-10T01:59:34.487Z,14.70
2022-09-10T02:02:06.558Z,14.70
2022-09-10T02:04:33.591Z,14.60
2022-09-10T02:07:00.299Z,14.60
2022-09-10T02:09:26.985Z,14.70
2022-09-10T02:11:54.484Z,14.60
2022-09-10T02:14:21.954Z,14.60
2022-09-10T02:16:55.127Z,14.60
2022-09-10T02:19:21.801Z,14.60
2022-09-10T02:21:48.571Z,14.60
2022-09-10T02:24:15.308Z,14.50
2022-09-10T02:26:43.133Z,14.50
2022-09-10T02:29:11.120Z,14.50
2022-09-10T02:31:38.271Z,14.50
2022-09-10T02:34:04.977Z,14.50
2022-09-10T02:36:31.931Z,14.50
2022-09-10T02:38:59.502Z,14.50
2022-09-10T02:41:26.280Z,14.40
2022-09-10T02:43:53.128Z,14.40
2022-09-10T02:46:19.960Z,14.40
2022-09-10T02:48:46.824Z,14.30
2022-09-10T02:51:13.590Z,14.30
2022-09-10T02:53:40.298Z,14.30
2022-09-10T02:56:07.796Z,14.20
2022-09-10T02:58:34.548Z,14.20
2022-09-10T03:01:08.917Z,14.10
2022-09-10T03:03:36.628Z,14.10
2022-09-10T03:06:04.169Z,14.10
2022-09-10T03:08:31.153Z,14.10
2022-09-10T03:10:59.390Z,14.10
2022-09-10T03:13:29.167Z,14.00
2022-09-10T03:15:56.245Z,13.90
2022-09-10T03:18:23.169Z,14.00
2022-09-10T03:20:50.240Z,14.00
2022-09-10T03:23:17.692Z,14.00
2022-09-10T03:25:49.099Z,14.00
2022-09-10T03:28:16.433Z,13.90
2022-09-10T03:30:43.107Z,13.90
2022-09-10T03:33:11.777Z,13.90
2022-09-10T03:35:38.763Z,13.90
2022-09-10T03:38:05.847Z,13.90
2022-09-10T03:40:33.018Z,13.90
2022-09-10T03:43:01.001Z,13.90
2022-09-10T03:45:28.623Z,13.90
2022-09-10T03:47:55.434Z,13.90
2022-09-10T03:50:22.144Z,13.90
2022-09-10T03:52:48.857Z,13.90
2022-09-10T03:55:15.842Z,14.00
2022-09-10T03:57:42.565Z,13.90
2022-09-10T04:00:12.116Z,13.90
2022-09-10T04:02:38.879Z,14.00
2022-09-10T04:05:06.838Z,14.00
2022-09-10T04:07:33.520Z,14.00
2022-09-10T04:10:00.293Z,14.00
2022-09-10T04:12:27.143Z,14.00
2022-09-10T04:14:53.865Z,14.00
2022-09-10T04:17:20.909Z,14.00
2022-09-10T04:19:47.583Z,13.90
2022-09-10T04:22:14.240Z,13.80
2022-09-10T04:24:41.093Z,13.80
2022-09-10T04:27:07.803Z,13.90
2022-09-10T04:29:34.641Z,13.90
2022-09-10T04:32:01.504Z,13.90
2022-09-10T04:34:28.309Z,13.90
2022-09-10T04:36:55.012Z,13.90
2022-09-10T04:39:21.816Z,13.90
2022-09-10T04:41:48.539Z,13.90
2022-09-10T04:44:15.511Z,13.90
2022-09-10T04:46:42.360Z,13.90
2022-09-10T04:49:09.778Z,13.90
2022-09-10T04:51:36.503Z,13.90
2022-09-10T04:54:03.201Z,13.80
2022-09-10T04:56:29.947Z,13.80
2022-09-10T04:58:56.720Z,13.90
2022-09-10T05:01:23.542Z,13.90
2022-09-10T05:03:50.267Z,13.80
2022-09-10T05:06:16.970Z,13.80
2022-09-10T05:08:43.654Z,13.80
2022-09-10T05:11:12.861Z,13.70
2022-09-10T05:13:39.633Z,13.70
2022-09-10T05:16:06.919Z,13.70
2022-09-10T05:18:33.757Z,13.80
2022-09-10T05:21:00.408Z,13.80
2022-09-10T05:23:27.216Z,13.80
2022-09-10T05:25:54.052Z,13.80
2022-09-10T05:28:22.639Z,13.80
2022-09-10T05:30:52.410Z,13.80
2022-09-10T05:33:19.107Z,13.90
2022-09-10T05:35:48.659Z,13.90
2022-09-10T05:38:15.375Z,13.90
2022-09-10T05:40:42.602Z,14.00
2022-09-10T05:43:10.317Z,14.00
2022-09-10T05:45:37.373Z,14.00
2022-09-10T05:48:04.203Z,14.10
2022-09-10T05:50:30.901Z,14.10
2022-09-10T05:52:57.657Z,14.10
2022-09-10T05:55:24.430Z,14.20
2022-09-10T05:57:51.525Z,14.20
2022-09-10T06:00:18.389Z,14.20
2022-09-10T06:02:45.782Z,14.20
2022-09-10T06:05:12.734Z,14.30
2022-09-10T06:07:39.929Z,14.30
2022-09-10T06:10:07.219Z,14.30
2022-09-10T06:12:34.204Z,14.30
2022-09-10T06:15:00.950Z,14.40
2022-09-10T06:17:27.605Z,14.40
2022-09-10T06:19:54.283Z,14.40
2022-09-10T06:22:21.072Z,14.40
2022-09-10T06:24:49.132Z,14.40
2022-09-10T06:27:16.992Z,14.50
2022-09-10T06:29:43.717Z,14.50
2022-09-10T06:32:10.425Z,14.40
2022-09-10T06:34:37.119Z,14.40
2022-09-10T06:37:04.228Z,14.40
2022-09-10T06:39:31.001Z,14.40
2022-09-10T06:41:57.654Z,14.50
2022-09-10T06:44:24.353Z,14.60
2022-09-10T06:47:28.264Z,14.70
2022-09-10T06:49:37.739Z,14.80
2022-09-10T06:52:04.528Z,14.90
2022-09-10T06:54:31.253Z,15.00
2022-09-10T06:56:58.201Z,15.00
2022-09-10T06:59:24.984Z,15.00
2022-09-10T07:01:51.883Z,15.00
2022-09-10T07:04:18.701Z,15.10
2022-09-10T07:06:46.634Z,15.20
2022-09-10T07:09:14.201Z,15.20
2022-09-10T07:11:41.872Z,15.30
2022-09-10T07:14:14.711Z,15.40
2022-09-10T07:16:45.609Z,15.40
2022-09-10T07:19:17.694Z,15.40
2022-09-10T07:21:44.850Z,15.50
2022-09-10T07:24:14.564Z,15.60
2022-09-10T07:26:41.885Z,15.70
2022-09-10T07:29:08.669Z,15.70
2022-09-10T07:31:35.879Z,15.90
2022-09-10T07:34:02.828Z,15.90
2022-09-10T07:36:29.783Z,16.00
2022-09-10T07:39:03.720Z,16.00
2022-09-10T07:41:31.897Z,16.10
2022-09-10T07:43:58.782Z,16.20
2022-09-10T07:46:27.887Z,16.30
2022-09-10T07:48:58.888Z,16.40
2022-09-10T07:51:26.684Z,16.50
2022-09-10T07:53:57.411Z,16.60
2022-09-10T07:56:24.207Z,16.60
2022-09-10T07:58:51.565Z,16.70
2022-09-10T08:01:19.843Z,16.70
2022-09-10T08:03:46.732Z,16.80
2022-09-10T08:06:13.453Z,16.90
2022-09-10T08:08:40.449Z,16.90
2022-09-10T08:11:16.569Z,17.00
2022-09-10T08:13:53.320Z,17.10
2022-09-10T08:16:21.744Z,17.20
2022-09-10T08:18:48.704Z,17.30
2022-09-10T08:21:16.014Z,17.30
2022-09-10T08:23:43.793Z,17.30
2022-09-10T08:26:10.505Z,17.50
2022-09-10T08:28:37.992Z,17.60
2022-09-10T08:31:09.697Z,17.60
2022-09-10T08:33:36.730Z,17.70
2022-09-10T08:36:04.048Z,17.70
2022-09-10T08:38:35.083Z,17.80
2022-09-10T08:41:02.672Z,17.90
2022-09-10T08:43:42.860Z,18.00
2022-09-10T08:46:48.425Z,18.10
2022-09-10T08:49:29.455Z,18.10
2022-09-10T08:51:59.189Z,18.20
2022-09-10T08:54:37.547Z,18.30
2022-09-10T08:57:04.332Z,18.30
2022-09-10T08:59:35.119Z,18.30
2022-09-10T09:02:31.621Z,18.40
2022-09-10T09:05:19.032Z,18.40
2022-09-10T09:07:47.023Z,18.40
2022-09-10T09:10:22.579Z,18.50
2022-09-10T09:13:15.147Z,18.60
2022-09-10T09:15:57.304Z,18.70
2022-09-10T09:18:48.177Z,18.90
2022-09-10T09:21:17.144Z,19.00
2022-09-10T09:24:13.457Z,19.00
2022-09-10T09:26:40.718Z,19.00
2022-09-10T09:29:19.673Z,19.10
2022-09-10T09:31:49.560Z,19.20
2022-09-10T09:34:22.525Z,19.30
2022-09-10T09:36:50.782Z,19.30
2022-09-10T09:39:38.022Z,19.30
2022-09-10T09:42:35.398Z,19.30
2022-09-10T09:45:17.078Z,19.30
2022-09-10T09:47:47.156Z,19.40
2022-09-10T09:50:14.077Z,19.30
2022-09-10T09:52:41.107Z,19.40
2022-09-10T09:55:21.559Z,19.40
2022-09-10T09:57:48.302Z,19.40
2022-09-10T10:00:35.987Z,19.40
2022-09-10T10:03:24.989Z,19.40
2022-09-10T10:06:01.016Z,19.50
2022-09-10T10:08:52.329Z,19.60
2022-09-10T10:11:20.608Z,19.70
2022-09-10T10:13:47.572Z,19.70
2022-09-10T10:16:22.051Z,19.80
2022-09-10T10:18:48.877Z,20.00
2022-09-10T10:21:16.652Z,20.10
2022-09-10T10:23:43.846Z,20.20
2022-09-10T10:26:20.363Z,20.30
2022-09-10T10:28:51.653Z,20.30
2022-09-10T10:31:18.652Z,20.40
2022-09-10T10:34:09.614Z,20.40
2022-09-10T10:36:57.142Z,20.40
2022-09-10T10:39:56.101Z,20.40
2022-09-10T10:42:37.873Z,20.40
2022-09-10T10:45:38.964Z,20.40
2022-09-10T10:48:15.988Z,20.50
2022-09-10T10:51:23.861Z,20.50
2022-09-10T10:54:15.054Z,20.60
2022-09-10T10:57:01.453Z,20.40
2022-09-10T10:59:46.397Z,20.40
2022-09-10T11:02:29.606Z,20.40
2022-09-10T11:04:56.647Z,20.50
2022-09-10T11:07:52.846Z,20.60
2022-09-10T11:10:29.933Z,20.50
2022-09-10T11:13:24.495Z,20.60
2022-09-10T11:16:20.099Z,20.60
2022-09-10T11:18:58.143Z,20.70
2022-09-10T11:21:31.239Z,20.80
2022-09-10T11:24:04.492Z,20.90
2022-09-10T11:26:37.792Z,20.90
2022-09-10T11:29:23.258Z,20.90
2022-09-10T11:31:54.376Z,21.00
2022-09-10T11:34:34.697Z,21.00
2022-09-10T11:37:35.378Z,21.00
2022-09-10T11:40:06.771Z,21.00
2022-09-10T11:42:40.463Z,21.00
2022-09-10T11:45:40.213Z,20.90
2022-09-10T11:48:37.224Z,20.90
2022-09-10T11:51:06.812Z,20.90
2022-09-10T11:53:34.201Z,20.90
2022-09-10T11:56:13.748Z,20.80
2022-09-10T11:58:43.404Z,20.80
2022-09-10T12:01:13.375Z,20.70
2022-09-10T12:03:47.532Z,20.70
2022-09-10T12:06:26.381Z,20.70
2022-09-10T12:09:21.680Z,20.60
2022-09-10T12:12:00.569Z,20.70
2022-09-10T12:14:28.072Z,20.80
2022-09-10T12:16:59.066Z,20.80
2022-09-10T12:19:38.002Z,20.80
2022-09-10T12:22:15.922Z,20.90
2022-09-10T12:24:48.077Z,21.00
2022-09-10T12:27:15.827Z,21.00
2022-09-10T12:29:42.482Z,21.10
2022-09-10T12:32:12.404Z,21.10
2022-09-10T12:34:39.469Z,21.20
2022-09-10T12:37:06.130Z,21.30
2022-09-10T12:39:34.424Z,21.30
2022-09-10T12:42:02.177Z,21.30
2022-09-10T12:44:29.948Z,21.30
2022-09-10T12:47:15.120Z,21.30
2022-09-10T12:49:46.558Z,21.10
2022-09-10T12:52:13.985Z,21.00
2022-09-10T12:55:02.729Z,21.00
2022-09-10T12:57:47.589Z,21.00
2022-09-10T13:00:18.495Z,20.90
2022-09-10T13:02:51.483Z,20.90
2022-09-10T13:05:39.834Z,20.90
2022-09-10T13:08:15.675Z,20.80
2022-09-10T13:10:47.229Z,20.70
2022-09-10T13:13:40.936Z,20.70
2022-09-10T13:16:27.274Z,20.50
2022-09-10T13:18:57.132Z,20.20
2022-09-10T13:21:23.886Z,20.10
2022-09-10T13:23:50.622Z,20.20
2022-09-10T13:26:33.728Z,20.20
2022-09-10T13:29:04.806Z,20.20
2022-09-10T13:31:35.657Z,20.00
2022-09-10T13:34:14.576Z,19.80
2022-09-10T13:37:18.780Z,19.80
2022-09-10T13:40:02.881Z,19.80
2022-09-10T13:42:51.164Z,19.80
2022-09-10T13:45:30.508Z,19.80
2022-09-10T13:48:01.151Z,19.80
2022-09-10T13:50:40.051Z,19.70
2022-09-10T13:53:08.353Z,19.60
2022-09-10T13:55:35.060Z,19.60
2022-09-10T13:58:16.486Z,19.40
2022-09-10T14:00:54.199Z,19.50
2022-09-10T14:03:29.018Z,19.40
2022-09-10T14:06:07.609Z,19.20
2022-09-10T14:08:49.079Z,19.10
2022-09-10T14:11:22.755Z,19.10
2022-09-10T14:14:04.275Z,19.20
2022-09-10T14:16:41.748Z,19.10
2022-09-10T14:19:24.405Z,19.10
2022-09-10T14:21:51.730Z,19.10
2022-09-10T14:24:30.291Z,19.10
2022-09-10T14:27:17.334Z,19.20
2022-09-10T14:29:44.150Z,19.30
2022-09-10T14:32:37.443Z,19.30
2022-09-10T14:35:35.304Z,19.30
2022-09-10T14:38:06.677Z,19.30
2022-09-10T14:40:36.991Z,19.30
2022-09-10T14:43:23.297Z,19.30
2022-09-10T14:45:50.140Z,19.30
2022-09-10T14:48:30.284Z,19.30
2022-09-10T14:51:17.585Z,19.40
2022-09-10T14:53:45.974Z,19.40
2022-09-10T14:56:44.016Z,19.40
2022-09-10T14:59:15.964Z,19.50
2022-09-10T15:01:46.575Z,19.50
2022-09-10T15:04:18.850Z,19.60
2022-09-10T15:06:45.694Z,19.60
2022-09-10T15:09:15.545Z,19.60
2022-09-10T15:11:48.952Z,19.60
2022-09-10T15:14:15.824Z,19.70
2022-09-10T15:16:43.950Z,19.60
2022-09-10T15:19:11.780Z,19.50
2022-09-10T15:21:39.290Z,19.50
2022-09-10T15:24:06.364Z,19.50
2022-09-10T15:26:33.288Z,19.50
2022-09-10T15:29:00.387Z,19.50
2022-09-10T15:31:32.050Z,19.50
2022-09-10T15:33:59.795Z,19.40
2022-09-10T15:36:28.365Z,19.40
2022-09-10T15:38:55.774Z,19.40
2022-09-10T15:41:22.433Z,19.50
2022-09-10T15:43:49.156Z,19.40
2022-09-10T15:46:16.444Z,19.40
2022-09-10T15:48:43.544Z,19.30
2022-09-10T15:51:17.115Z,19.00
2022-09-10T15:53:43.876Z,18.90
2022-09-10T15:56:11.169Z,18.80
2022-09-10T15:58:38.117Z,18.80
2022-09-10T16:01:12.042Z,18.80
2022-09-10T16:03:44.041Z,18.70
2022-09-10T16:06:11.010Z,18.70
2022-09-10T16:08:37.786Z,18.70
2022-09-10T16:11:11.857Z,18.70
2022-09-10T16:13:39.758Z,18.70
2022-09-10T16:16:09.539Z,18.70
2022-09-10T16:18:36.364Z,18.80
2022-09-10T16:21:09.332Z,18.80
2022-09-10T16:23:37.170Z,18.70
2022-09-10T16:26:04.508Z,18.70
2022-09-10T16:28:31.400Z,18.70
2022-09-10T16:30:59.176Z,18.70
2022-09-10T16:33:26.114Z,18.70
2022-09-10T16:35:53.185Z,18.70
2022-09-10T16:38:19.868Z,18.70
2022-09-10T16:40:46.975Z,18.60
2022-09-10T16:43:13.676Z,18.60
2022-09-10T16:45:49.695Z,18.60
2022-09-10T16:48:16.379Z,18.50
2022-09-10T16:50:43.081Z,18.50
2022-09-10T16:53:12.037Z,18.40
2022-09-10T16:55:39.230Z,18.40
2022-09-10T16:58:05.968Z,18.40
2022-09-10T17:00:32.677Z,18.40
2022-09-10T17:02:59.415Z,18.40
2022-09-10T17:05:26.377Z,18.30
2022-09-10T17:07:53.158Z,18.20
2022-09-10T17:10:20.632Z,18.20
2022-09-10T17:12:47.378Z,18.10
2022-09-10T17:15:15.456Z,18.10
2022-09-10T17:17:42.137Z,18.10
2022-09-10T17:20:09.357Z,18.10
2022-09-10T17:22:36.037Z,18.00
2022-09-10T17:25:02.785Z,17.90
2022-09-10T17:27:30.785Z,17.90
2022-09-10T17:29:57.475Z,17.80
2022-09-10T17:32:24.374Z,17.80
2022-09-10T17:34:51.561Z,17.70
2022-09-10T17:37:19.844Z,17.60
2022-09-10T17:39:47.668Z,17.60
2022-09-10T17:42:15.087Z,17.60
2022-09-10T17:44:41.816Z,17.60
2022-09-10T17:47:09.701Z,17.50
2022-09-10T17:49:37.817Z,17.40
2022-09-10T17:52:05.465Z,17.40
2022-09-10T17:54:32.196Z,17.40
2022-09-10T17:56:58.980Z,17.40
2022-09-10T17:59:26.743Z,17.30
2022-09-10T18:01:53.601Z,17.30
2022-09-10T18:04:21.638Z,17.30
2022-09-10T18:06:52.227Z,17.20
2022-09-10T18:09:19.400Z,17.20
2022-09-10T18:11:46.187Z,17.20
2022-09-10T18:14:17.666Z,17.20
2022-09-10T18:16:45.484Z,17.10
2022-09-10T18:19:14.468Z,17.10
2022-09-10T18:21:41.489Z,17.00
2022-09-10T18:24:18.174Z,17.00
2022-09-10T18:26:46.461Z,16.90
2022-09-10T18:29:15.472Z,16.90
2022-09-10T18:31:44.199Z,16.90
2022-09-10T18:34:12.933Z,16.90
2022-09-10T18:36:39.624Z,16.80
2022-09-10T18:39:07.347Z,16.70
2022-09-10T18:41:38.245Z,16.70
2022-09-10T18:44:11.546Z,16.60
2022-09-10T18:46:38.371Z,16.60
2022-09-10T18:49:05.557Z,16.60
2022-09-10T18:51:32.353Z,16.60
2022-09-10T18:54:00.344Z,16.60
2022-09-10T18:56:29.836Z,16.60
2022-09-10T18:58:59.281Z,16.60
2022-09-10T19:01:27.560Z,16.60
2022-09-10T19:03:54.799Z,16.60
2022-09-10T19:06:25.738Z,16.50
2022-09-10T19:08:54.190Z,16.50
2022-09-10T19:11:21.894Z,16.40
2022-09-10T19:13:50.025Z,16.40
2022-09-10T19:16:16.913Z,16.30
2022-09-10T19:18:43.917Z,16.30
2022-09-10T19:21:10.680Z,16.20
2022-09-10T19:23:37.452Z,16.20
2022-09-10T19:26:04.309Z,16.20
2022-09-10T19:28:33.585Z,16.20
2022-09-10T19:31:04.817Z,16.20
2022-09-10T19:33:36.269Z,16.20
2022-09-10T19:36:05.062Z,16.20
2022-09-10T19:38:37.720Z,16.10
2022-09-10T19:41:09.192Z,16.10
2022-09-10T19:43:39.125Z,16.10
2022-09-10T19:46:06.622Z,16.10
2022-09-10T19:48:33.586Z,16.00
2022-09-10T19:51:01.539Z,16.10
2022-09-10T19:53:28.469Z,16.00
2022-09-10T19:55:55.168Z,16.10
2022-09-10T19:58:21.882Z,16.00
2022-09-10T20:00:48.617Z,16.00
2022-09-10T20:03:15.349Z,15.90
2022-09-10T20:05:46.178Z,15.90
2022-09-10T20:08:12.921Z,15.90
2022-09-10T20:10:39.618Z,15.80
2022-09-10T20:13:08.337Z,15.80
2022-09-10T20:15:43.544Z,15.80
2022-09-10T20:18:12.147Z,15.80
2022-09-10T20:20:38.897Z,15.80
2022-09-10T20:23:05.628Z,15.70
2022-09-10T20:25:32.493Z,15.80
2022-09-10T20:27:59.181Z,15.70
2022-09-10T20:30:25.942Z,15.70
2022-09-10T20:32:52.677Z,15.70
2022-09-10T20:35:19.493Z,15.70
2022-09-10T20:37:51.210Z,15.70
2022-09-10T20:40:18.550Z,15.70
2022-09-10T20:42:45.306Z,15.70
2022-09-10T20:45:12.024Z,15.60
2022-09-10T20:47:43.022Z,15.60
2022-09-10T20:50:13.181Z,15.60
2022-09-10T20:52:40.262Z,15.60
2022-09-10T20:55:07.496Z,15.70
2022-09-10T20:57:34.222Z,15.60
2022-09-10T21:00:00.964Z,15.60
2022-09-10T21:02:27.776Z,15.60
2022-09-10T21:04:54.516Z,15.60
2022-09-10T21:07:21.269Z,15.60
2022-09-10T21:09:48.001Z,15.60
2022-09-10T21:12:15.921Z,15.60
2022-09-10T21:14:42.600Z,15.60
2022-09-10T21:17:09.274Z,15.60
2022-09-10T21:19:35.990Z,15.60
2022-09-10T21:22:02.809Z,15.60
2022-09-10T21:24:29.559Z,15.50
2022-09-10T21:26:56.328Z,15.50
2022-09-10T21:29:23.129Z,15.50
2022-09-10T21:31:50.734Z,15.50
2022-09-10T21:34:17.710Z,15.50
2022-09-10T21:36:45.191Z,15.50
2022-09-10T21:39:13.469Z,15.50
2022-09-10T21:41:47.664Z,15.50
2022-09-10T21:44:19.732Z,15.40
2022-09-10T21:46:46.740Z,15.40
2022-09-10T21:49:13.709Z,15.40
2022-09-10T21:51:41.234Z,15.40
2022-09-10T21:54:09.269Z,15.40
2022-09-10T21:56:35.937Z,15.40
2022-09-10T21:59:02.671Z,15.40
2022-09-10T22:01:30.408Z,15.40
2022-09-10T22:03:59.537Z,15.40
2022-09-10T22:06:28.183Z,15.40
2022-09-10T22:08:59.426Z,15.40
2022-09-10T22:11:30.803Z,15.30
2022-09-10T22:14:05.590Z,15.30
2022-09-10T22:16:32.797Z,15.30
2022-09-10T22:19:01.181Z,15.20
2022-09-10T22:21:27.928Z,15.20
2022-09-10T22:23:54.661Z,15.20
2022-09-10T22:26:23.318Z,15.20
2022-09-10T22:28:58.137Z,15.20
2022-09-10T22:31:27.311Z,15.20
2022-09-10T22:33:55.533Z,15.20
2022-09-10T22:36:24.133Z,15.20
2022-09-10T22:38:52.087Z,15.20
2022-09-10T22:41:19.134Z,15.20
2022-09-10T22:43:46.176Z,15.20
2022-09-10T22:46:13.018Z,15.20
2022-09-10T22:48:40.902Z,15.20
2022-09-10T22:51:10.860Z,15.10
2022-09-10T22:53:38.456Z,15.10
2022-09-10T22:56:05.252Z,15.10
2022-09-10T22:58:33.223Z,15.00
2022-09-10T23:01:08.017Z,15.00
2022-09-10T23:03:34.867Z,15.00
2022-09-10T23:06:15.528Z,15.00
2022-09-10T23:08:44.059Z,15.00
2022-09-10T23:11:16.666Z,15.00
2022-09-10T23:13:44.305Z,15.00
2022-09-10T23:16:22.306Z,14.90
2022-09-10T23:18:50.638Z,14.80
2022-09-10T23:21:18.303Z,14.80
2022-09-10T23:23:49.306Z,14.80
2022-09-10T23:26:17.088Z,14.80
2022-09-10T23:28:44.218Z,14.80
2022-09-10T23:31:19.229Z,14.80
2022-09-10T23:33:57.968Z,14.80
2022-09-10T23:36:25.541Z,14.80
2022-09-10T23:38:52.224Z,14.80
2022-09-10T23:41:19.016Z,14.90
2022-09-10T23:43:45.814Z,14.80
2022-09-10T23:46:12.587Z,14.80
2022-09-10T23:48:39.649Z,14.80
2022-09-10T23:51:06.580Z,14.80
2022-09-10T23:53:33.409Z,14.80
2022-09-10T23:56:00.789Z,14.80
2022-09-10T23:58:27.522Z,14.80
